sensor_id;sensor_type;location;lat;lon;timestamp;P1;durP1;ratioP1;P2;durP2;ratioP2
10910;SDS011;5508;49.150;11.030;2023-05-18T00:01:19;8.93;;;6.53;;
10910;SDS011;5508;49.150;11.030;2023-05-18T00:04:21;11.33;;;7.87;;
10910;SDS011;5508;49.150;11.030;2023-05-18T00:07:22;10.43;;;7.60;;
10910;SDS011;5508;49.150;11.030;2023-05-18T00:10:23;7.83;;;6.33;;
10910;SDS011;5508;49.150;11.030;2023-05-18T00:13:24;9.40;;;7.07;;
10910;SDS011;5508;49.150;11.030;2023-05-18T00:16:24;11.47;;;6.73;;
10910;SDS011;5508;49.150;11.030;2023-05-18T00:19:25;7.53;;;6.67;;
10910;SDS011;5508;49.150;11.030;2023-05-18T00:22:27;9.17;;;6.87;;
10910;SDS011;5508;49.150;11.030;2023-05-18T00:25:28;10.07;;;7.07;;
10910;SDS011;5508;49.150;11.030;2023-05-18T00:28:29;13.77;;;7.73;;
10910;SDS011;5508;49.150;11.030;2023-05-18T00:31:30;10.83;;;6.60;;
10910;SDS011;5508;49.150;11.030;2023-05-18T00:34:35;9.07;;;7.33;;
10910;SDS011;5508;49.150;11.030;2023-05-18T00:37:35;12.37;;;7.30;;
10910;SDS011;5508;49.150;11.030;2023-05-18T00:40:36;9.43;;;6.93;;
10910;SDS011;5508;49.150;11.030;2023-05-18T00:43:41;11.23;;;8.87;;
10910;SDS011;5508;49.150;11.030;2023-05-18T00:46:42;11.07;;;8.40;;
10910;SDS011;5508;49.150;11.030;2023-05-18T00:49:43;11.03;;;7.87;;
10910;SDS011;5508;49.150;11.030;2023-05-18T00:52:43;7.77;;;6.63;;
10910;SDS011;5508;49.150;11.030;2023-05-18T00:55:45;9.40;;;7.03;;
10910;SDS011;5508;49.150;11.030;2023-05-18T00:58:46;9.47;;;6.53;;
10910;SDS011;5508;49.150;11.030;2023-05-18T01:01:46;10.63;;;6.80;;
10910;SDS011;5508;49.150;11.030;2023-05-18T01:04:47;10.53;;;6.50;;
10910;SDS011;5508;49.150;11.030;2023-05-18T01:07:48;9.87;;;6.70;;
10910;SDS011;5508;49.150;11.030;2023-05-18T01:10:51;11.53;;;6.97;;
10910;SDS011;5508;49.150;11.030;2023-05-18T01:17:00;9.07;;;6.30;;
10910;SDS011;5508;49.150;11.030;2023-05-18T01:20:27;10.37;;;7.43;;
10910;SDS011;5508;49.150;11.030;2023-05-18T01:23:44;9.33;;;6.27;;
10910;SDS011;5508;49.150;11.030;2023-05-18T01:26:52;10.17;;;6.87;;
10910;SDS011;5508;49.150;11.030;2023-05-18T01:29:56;10.33;;;6.40;;
10910;SDS011;5508;49.150;11.030;2023-05-18T01:32:57;9.13;;;5.90;;
10910;SDS011;5508;49.150;11.030;2023-05-18T01:35:58;6.93;;;5.40;;
10910;SDS011;5508;49.150;11.030;2023-05-18T01:38:58;6.93;;;5.70;;
10910;SDS011;5508;49.150;11.030;2023-05-18T01:42:01;10.73;;;6.07;;
10910;SDS011;5508;49.150;11.030;2023-05-18T01:45:08;10.03;;;6.33;;
10910;SDS011;5508;49.150;11.030;2023-05-18T01:48:17;9.63;;;5.67;;
10910;SDS011;5508;49.150;11.030;2023-05-18T01:51:23;11.10;;;6.63;;
10910;SDS011;5508;49.150;11.030;2023-05-18T01:54:28;7.30;;;5.43;;
10910;SDS011;5508;49.150;11.030;2023-05-18T01:57:32;7.97;;;6.00;;
10910;SDS011;5508;49.150;11.030;2023-05-18T02:00:33;8.20;;;5.83;;
10910;SDS011;5508;49.150;11.030;2023-05-18T02:03:35;6.50;;;5.10;;
10910;SDS011;5508;49.150;11.030;2023-05-18T02:06:36;7.37;;;5.10;;
10910;SDS011;5508;49.150;11.030;2023-05-18T02:09:36;12.03;;;6.00;;
10910;SDS011;5508;49.150;11.030;2023-05-18T02:12:37;8.60;;;6.57;;
10910;SDS011;5508;49.150;11.030;2023-05-18T02:15:37;9.00;;;5.67;;
10910;SDS011;5508;49.150;11.030;2023-05-18T02:18:38;8.40;;;5.67;;
10910;SDS011;5508;49.150;11.030;2023-05-18T02:21:39;8.60;;;5.87;;
10910;SDS011;5508;49.150;11.030;2023-05-18T02:24:40;6.77;;;5.70;;
10910;SDS011;5508;49.150;11.030;2023-05-18T02:27:41;10.70;;;6.80;;
10910;SDS011;5508;49.150;11.030;2023-05-18T02:30:42;7.87;;;6.00;;
10910;SDS011;5508;49.150;11.030;2023-05-18T02:33:42;12.13;;;6.93;;
10910;SDS011;5508;49.150;11.030;2023-05-18T02:36:43;10.87;;;5.97;;
10910;SDS011;5508;49.150;11.030;2023-05-18T02:39:45;8.37;;;5.90;;
10910;SDS011;5508;49.150;11.030;2023-05-18T02:42:45;10.57;;;6.27;;
10910;SDS011;5508;49.150;11.030;2023-05-18T02:45:46;9.33;;;6.60;;
10910;SDS011;5508;49.150;11.030;2023-05-18T02:48:46;10.80;;;7.27;;
10910;SDS011;5508;49.150;11.030;2023-05-18T02:51:47;9.67;;;6.80;;
10910;SDS011;5508;49.150;11.030;2023-05-18T02:54:48;12.53;;;7.17;;
10910;SDS011;5508;49.150;11.030;2023-05-18T02:57:48;10.97;;;7.30;;
10910;SDS011;5508;49.150;11.030;2023-05-18T03:00:55;11.43;;;7.57;;
10910;SDS011;5508;49.150;11.030;2023-05-18T03:03:56;9.63;;;6.57;;
10910;SDS011;5508;49.150;11.030;2023-05-18T03:06:57;10.37;;;6.33;;
10910;SDS011;5508;49.150;11.030;2023-05-18T03:10:02;9.50;;;6.17;;
10910;SDS011;5508;49.150;11.030;2023-05-18T03:13:03;9.77;;;6.13;;
10910;SDS011;5508;49.150;11.030;2023-05-18T03:16:04;9.97;;;6.47;;
10910;SDS011;5508;49.150;11.030;2023-05-18T03:19:04;13.10;;;6.77;;
10910;SDS011;5508;49.150;11.030;2023-05-18T03:22:05;9.37;;;7.03;;
10910;SDS011;5508;49.150;11.030;2023-05-18T03:25:06;6.70;;;5.73;;
10910;SDS011;5508;49.150;11.030;2023-05-18T03:28:07;8.70;;;6.37;;
10910;SDS011;5508;49.150;11.030;2023-05-18T03:31:07;16.00;;;7.00;;
10910;SDS011;5508;49.150;11.030;2023-05-18T03:34:08;7.97;;;5.97;;
10910;SDS011;5508;49.150;11.030;2023-05-18T03:37:08;10.07;;;6.77;;
10910;SDS011;5508;49.150;11.030;2023-05-18T03:40:12;11.70;;;6.53;;
10910;SDS011;5508;49.150;11.030;2023-05-18T03:43:14;10.73;;;6.77;;
10910;SDS011;5508;49.150;11.030;2023-05-18T03:46:15;12.23;;;7.67;;
10910;SDS011;5508;49.150;11.030;2023-05-18T03:49:15;14.40;;;6.60;;
10910;SDS011;5508;49.150;11.030;2023-05-18T03:52:16;9.20;;;6.07;;
10910;SDS011;5508;49.150;11.030;2023-05-18T03:55:21;9.13;;;6.33;;
10910;SDS011;5508;49.150;11.030;2023-05-18T03:58:22;10.33;;;6.00;;
10910;SDS011;5508;49.150;11.030;2023-05-18T04:01:23;9.23;;;6.33;;
10910;SDS011;5508;49.150;11.030;2023-05-18T04:04:24;9.90;;;6.17;;
10910;SDS011;5508;49.150;11.030;2023-05-18T04:07:26;9.03;;;6.33;;
10910;SDS011;5508;49.150;11.030;2023-05-18T04:10:26;10.40;;;7.00;;
10910;SDS011;5508;49.150;11.030;2023-05-18T04:13:27;7.63;;;6.60;;
10910;SDS011;5508;49.150;11.030;2023-05-18T04:16:28;11.53;;;7.37;;
10910;SDS011;5508;49.150;11.030;2023-05-18T04:19:32;9.03;;;7.47;;
10910;SDS011;5508;49.150;11.030;2023-05-18T04:22:37;15.07;;;8.47;;
10910;SDS011;5508;49.150;11.030;2023-05-18T04:25:48;16.07;;;8.13;;
10910;SDS011;5508;49.150;11.030;2023-05-18T04:28:48;12.00;;;7.17;;
10910;SDS011;5508;49.150;11.030;2023-05-18T04:31:50;8.33;;;6.73;;
10910;SDS011;5508;49.150;11.030;2023-05-18T04:34:52;9.97;;;7.00;;
10910;SDS011;5508;49.150;11.030;2023-05-18T04:37:53;11.57;;;6.33;;
10910;SDS011;5508;49.150;11.030;2023-05-18T04:40:54;8.70;;;6.37;;
10910;SDS011;5508;49.150;11.030;2023-05-18T04:43:56;8.60;;;6.63;;
10910;SDS011;5508;49.150;11.030;2023-05-18T04:46:56;12.13;;;6.77;;
10910;SDS011;5508;49.150;11.030;2023-05-18T04:49:58;8.80;;;6.30;;
10910;SDS011;5508;49.150;11.030;2023-05-18T04:52:58;8.80;;;6.63;;
10910;SDS011;5508;49.150;11.030;2023-05-18T04:56:01;9.63;;;6.50;;
10910;SDS011;5508;49.150;11.030;2023-05-18T04:59:01;10.37;;;7.83;;
10910;SDS011;5508;49.150;11.030;2023-05-18T05:02:03;9.03;;;6.60;;
10910;SDS011;5508;49.150;11.030;2023-05-18T05:05:04;14.33;;;8.40;;
10910;SDS011;5508;49.150;11.030;2023-05-18T05:08:05;14.53;;;9.43;;
10910;SDS011;5508;49.150;11.030;2023-05-18T05:11:06;13.53;;;9.20;;
10910;SDS011;5508;49.150;11.030;2023-05-18T05:14:06;13.63;;;8.57;;
10910;SDS011;5508;49.150;11.030;2023-05-18T05:17:07;13.73;;;7.93;;
10910;SDS011;5508;49.150;11.030;2023-05-18T05:20:08;10.33;;;6.80;;
10910;SDS011;5508;49.150;11.030;2023-05-18T05:23:08;12.53;;;7.50;;
10910;SDS011;5508;49.150;11.030;2023-05-18T05:26:09;9.60;;;7.10;;
10910;SDS011;5508;49.150;11.030;2023-05-18T05:29:10;12.00;;;7.07;;
10910;SDS011;5508;49.150;11.030;2023-05-18T05:32:10;13.10;;;6.77;;
10910;SDS011;5508;49.150;11.030;2023-05-18T05:35:12;14.40;;;7.40;;
10910;SDS011;5508;49.150;11.030;2023-05-18T05:38:12;9.40;;;5.93;;
10910;SDS011;5508;49.150;11.030;2023-05-18T05:41:13;12.00;;;5.60;;
10910;SDS011;5508;49.150;11.030;2023-05-18T05:44:13;7.13;;;5.00;;
10910;SDS011;5508;49.150;11.030;2023-05-18T05:47:14;13.13;;;5.63;;
10910;SDS011;5508;49.150;11.030;2023-05-18T05:50:15;11.07;;;4.87;;
10910;SDS011;5508;49.150;11.030;2023-05-18T05:53:15;9.07;;;4.90;;
10910;SDS011;5508;49.150;11.030;2023-05-18T05:56:18;9.07;;;5.50;;
10910;SDS011;5508;49.150;11.030;2023-05-18T05:59:19;13.13;;;6.57;;
10910;SDS011;5508;49.150;11.030;2023-05-18T06:02:21;14.73;;;5.73;;
10910;SDS011;5508;49.150;11.030;2023-05-18T06:05:21;14.27;;;5.77;;
10910;SDS011;5508;49.150;11.030;2023-05-18T06:08:22;8.57;;;4.43;;
10910;SDS011;5508;49.150;11.030;2023-05-18T06:11:26;8.53;;;4.97;;
10910;SDS011;5508;49.150;11.030;2023-05-18T06:14:26;9.47;;;4.47;;
10910;SDS011;5508;49.150;11.030;2023-05-18T06:17:27;8.00;;;4.57;;
10910;SDS011;5508;49.150;11.030;2023-05-18T06:20:27;9.10;;;4.43;;
10910;SDS011;5508;49.150;11.030;2023-05-18T06:23:28;13.47;;;5.20;;
10910;SDS011;5508;49.150;11.030;2023-05-18T06:26:28;7.33;;;3.90;;
10910;SDS011;5508;49.150;11.030;2023-05-18T06:29:29;8.80;;;4.40;;
10910;SDS011;5508;49.150;11.030;2023-05-18T06:32:30;7.23;;;3.70;;
10910;SDS011;5508;49.150;11.030;2023-05-18T06:35:30;13.40;;;4.37;;
10910;SDS011;5508;49.150;11.030;2023-05-18T06:38:31;13.90;;;4.57;;
10910;SDS011;5508;49.150;11.030;2023-05-18T06:41:32;7.17;;;4.10;;
10910;SDS011;5508;49.150;11.030;2023-05-18T06:44:32;11.73;;;4.53;;
10910;SDS011;5508;49.150;11.030;2023-05-18T06:47:34;8.90;;;4.23;;
10910;SDS011;5508;49.150;11.030;2023-05-18T06:50:36;9.30;;;4.57;;
10910;SDS011;5508;49.150;11.030;2023-05-18T06:53:36;11.73;;;4.63;;
10910;SDS011;5508;49.150;11.030;2023-05-18T06:56:37;6.67;;;3.70;;
10910;SDS011;5508;49.150;11.030;2023-05-18T06:59:37;11.93;;;3.73;;
10910;SDS011;5508;49.150;11.030;2023-05-18T07:02:38;8.53;;;3.37;;
10910;SDS011;5508;49.150;11.030;2023-05-18T07:05:39;7.73;;;3.47;;
10910;SDS011;5508;49.150;11.030;2023-05-18T07:08:40;8.53;;;3.37;;
10910;SDS011;5508;49.150;11.030;2023-05-18T07:11:40;8.83;;;3.63;;
10910;SDS011;5508;49.150;11.030;2023-05-18T07:14:41;9.90;;;3.60;;
10910;SDS011;5508;49.150;11.030;2023-05-18T07:17:42;7.40;;;3.07;;
10910;SDS011;5508;49.150;11.030;2023-05-18T07:20:43;8.67;;;3.37;;
10910;SDS011;5508;49.150;11.030;2023-05-18T07:23:44;8.97;;;3.40;;
10910;SDS011;5508;49.150;11.030;2023-05-18T07:26:45;8.43;;;3.60;;
10910;SDS011;5508;49.150;11.030;2023-05-18T07:29:45;7.13;;;2.90;;
10910;SDS011;5508;49.150;11.030;2023-05-18T07:32:46;5.77;;;3.03;;
10910;SDS011;5508;49.150;11.030;2023-05-18T07:35:47;7.47;;;2.73;;
10910;SDS011;5508;49.150;11.030;2023-05-18T07:38:47;7.43;;;3.10;;
10910;SDS011;5508;49.150;11.030;2023-05-18T07:41:54;9.10;;;3.07;;
10910;SDS011;5508;49.150;11.030;2023-05-18T07:44:55;4.77;;;2.53;;
10910;SDS011;5508;49.150;11.030;2023-05-18T07:47:55;4.87;;;2.20;;
10910;SDS011;5508;49.150;11.030;2023-05-18T07:50:56;7.33;;;2.73;;
10910;SDS011;5508;49.150;11.030;2023-05-18T07:53:57;8.93;;;2.73;;
10910;SDS011;5508;49.150;11.030;2023-05-18T07:56:57;9.00;;;2.80;;
10910;SDS011;5508;49.150;11.030;2023-05-18T07:59:58;9.53;;;2.63;;
10910;SDS011;5508;49.150;11.030;2023-05-18T08:02:59;8.73;;;2.80;;
10910;SDS011;5508;49.150;11.030;2023-05-18T08:05:59;7.17;;;3.30;;
10910;SDS011;5508;49.150;11.030;2023-05-18T08:09:00;10.63;;;2.97;;
10910;SDS011;5508;49.150;11.030;2023-05-18T08:12:00;6.53;;;2.33;;
10910;SDS011;5508;49.150;11.030;2023-05-18T08:15:01;8.93;;;3.03;;
10910;SDS011;5508;49.150;11.030;2023-05-18T08:18:02;8.00;;;2.60;;
10910;SDS011;5508;49.150;11.030;2023-05-18T08:21:03;6.80;;;2.70;;
10910;SDS011;5508;49.150;11.030;2023-05-18T08:24:08;7.23;;;2.63;;
10910;SDS011;5508;49.150;11.030;2023-05-18T08:27:08;4.27;;;2.63;;
10910;SDS011;5508;49.150;11.030;2023-05-18T08:30:10;8.77;;;2.90;;
10910;SDS011;5508;49.150;11.030;2023-05-18T08:33:11;11.07;;;2.93;;
10910;SDS011;5508;49.150;11.030;2023-05-18T08:36:12;10.00;;;2.50;;
10910;SDS011;5508;49.150;11.030;2023-05-18T08:39:12;7.03;;;2.70;;
10910;SDS011;5508;49.150;11.030;2023-05-18T08:42:22;6.30;;;2.60;;
10910;SDS011;5508;49.150;11.030;2023-05-18T08:46:12;8.27;;;2.60;;
10910;SDS011;5508;49.150;11.030;2023-05-18T08:49:25;7.30;;;2.53;;
10910;SDS011;5508;49.150;11.030;2023-05-18T08:52:27;11.07;;;3.03;;
10910;SDS011;5508;49.150;11.030;2023-05-18T08:55:32;6.83;;;2.47;;
10910;SDS011;5508;49.150;11.030;2023-05-18T08:58:37;8.97;;;2.43;;
10910;SDS011;5508;49.150;11.030;2023-05-18T09:01:47;8.13;;;2.73;;
10910;SDS011;5508;49.150;11.030;2023-05-18T09:04:47;7.40;;;2.63;;
10910;SDS011;5508;49.150;11.030;2023-05-18T09:07:48;10.07;;;3.27;;
10910;SDS011;5508;49.150;11.030;2023-05-18T09:10:50;11.47;;;2.90;;
10910;SDS011;5508;49.150;11.030;2023-05-18T09:13:51;6.70;;;2.90;;
10910;SDS011;5508;49.150;11.030;2023-05-18T09:16:52;8.03;;;2.40;;
10910;SDS011;5508;49.150;11.030;2023-05-18T09:19:53;9.67;;;2.80;;
10910;SDS011;5508;49.150;11.030;2023-05-18T09:22:53;5.63;;;2.23;;
10910;SDS011;5508;49.150;11.030;2023-05-18T09:25:54;5.97;;;2.50;;
10910;SDS011;5508;49.150;11.030;2023-05-18T09:28:57;8.90;;;2.70;;
10910;SDS011;5508;49.150;11.030;2023-05-18T09:32:02;8.60;;;3.40;;
10910;SDS011;5508;49.150;11.030;2023-05-18T09:35:04;5.27;;;2.73;;
10910;SDS011;5508;49.150;11.030;2023-05-18T09:38:05;10.07;;;2.47;;
10910;SDS011;5508;49.150;11.030;2023-05-18T09:41:11;7.90;;;2.43;;
10910;SDS011;5508;49.150;11.030;2023-05-18T09:44:13;8.23;;;2.33;;
10910;SDS011;5508;49.150;11.030;2023-05-18T09:47:15;8.70;;;2.83;;
10910;SDS011;5508;49.150;11.030;2023-05-18T09:50:20;9.10;;;3.40;;
10910;SDS011;5508;49.150;11.030;2023-05-18T09:53:21;3.90;;;2.00;;
10910;SDS011;5508;49.150;11.030;2023-05-18T09:56:22;8.37;;;2.60;;
10910;SDS011;5508;49.150;11.030;2023-05-18T09:59:24;7.83;;;2.37;;
10910;SDS011;5508;49.150;11.030;2023-05-18T10:02:25;5.53;;;2.30;;
10910;SDS011;5508;49.150;11.030;2023-05-18T10:05:28;5.80;;;2.17;;
10910;SDS011;5508;49.150;11.030;2023-05-18T10:08:31;7.40;;;2.90;;
10910;SDS011;5508;49.150;11.030;2023-05-18T10:11:33;7.87;;;2.33;;
10910;SDS011;5508;49.150;11.030;2023-05-18T10:14:35;6.77;;;2.30;;
10910;SDS011;5508;49.150;11.030;2023-05-18T10:17:39;9.10;;;3.03;;
10910;SDS011;5508;49.150;11.030;2023-05-18T10:20:42;9.13;;;2.80;;
10910;SDS011;5508;49.150;11.030;2023-05-18T10:23:43;6.70;;;2.50;;
10910;SDS011;5508;49.150;11.030;2023-05-18T10:26:46;9.50;;;2.70;;
10910;SDS011;5508;49.150;11.030;2023-05-18T10:29:48;6.83;;;2.70;;
10910;SDS011;5508;49.150;11.030;2023-05-18T10:32:51;10.33;;;2.63;;
10910;SDS011;5508;49.150;11.030;2023-05-18T10:35:54;6.53;;;3.00;;
10910;SDS011;5508;49.150;11.030;2023-05-18T10:38:56;9.73;;;3.27;;
10910;SDS011;5508;49.150;11.030;2023-05-18T10:41:58;6.90;;;2.80;;
10910;SDS011;5508;49.150;11.030;2023-05-18T10:45:01;6.57;;;2.60;;
10910;SDS011;5508;49.150;11.030;2023-05-18T10:48:03;6.53;;;2.63;;
10910;SDS011;5508;49.150;11.030;2023-05-18T10:51:05;9.80;;;2.53;;
10910;SDS011;5508;49.150;11.030;2023-05-18T10:54:09;10.03;;;3.47;;
10910;SDS011;5508;49.150;11.030;2023-05-18T10:57:13;7.93;;;3.03;;
10910;SDS011;5508;49.150;11.030;2023-05-18T11:00:16;7.07;;;2.87;;
10910;SDS011;5508;49.150;11.030;2023-05-18T11:03:18;5.60;;;2.43;;
10910;SDS011;5508;49.150;11.030;2023-05-18T11:06:22;5.63;;;2.47;;
10910;SDS011;5508;49.150;11.030;2023-05-18T11:09:23;6.73;;;2.30;;
10910;SDS011;5508;49.150;11.030;2023-05-18T11:12:25;7.30;;;2.50;;
10910;SDS011;5508;49.150;11.030;2023-05-18T11:16:00;9.07;;;2.37;;
10910;SDS011;5508;49.150;11.030;2023-05-18T11:18:52;5.10;;;2.00;;
10910;SDS011;5508;49.150;11.030;2023-05-18T11:21:53;7.53;;;3.00;;
10910;SDS011;5508;49.150;11.030;2023-05-18T11:24:53;5.00;;;2.87;;
10910;SDS011;5508;49.150;11.030;2023-05-18T11:27:56;8.77;;;3.30;;
10910;SDS011;5508;49.150;11.030;2023-05-18T11:31:00;7.27;;;2.53;;
10910;SDS011;5508;49.150;11.030;2023-05-18T11:34:04;6.37;;;2.93;;
10910;SDS011;5508;49.150;11.030;2023-05-18T11:37:46;6.33;;;2.50;;
10910;SDS011;5508;49.150;11.030;2023-05-18T11:40:48;7.23;;;2.77;;
10910;SDS011;5508;49.150;11.030;2023-05-18T11:43:56;4.67;;;2.50;;
10910;SDS011;5508;49.150;11.030;2023-05-18T11:47:17;9.30;;;2.80;;
10910;SDS011;5508;49.150;11.030;2023-05-18T11:50:17;4.93;;;2.23;;
10910;SDS011;5508;49.150;11.030;2023-05-18T11:53:18;6.07;;;2.23;;
10910;SDS011;5508;49.150;11.030;2023-05-18T11:56:23;6.77;;;2.50;;
10910;SDS011;5508;49.150;11.030;2023-05-18T11:59:38;5.33;;;2.30;;
10910;SDS011;5508;49.150;11.030;2023-05-18T12:02:41;5.43;;;2.50;;
10910;SDS011;5508;49.150;11.030;2023-05-18T12:05:43;6.03;;;2.43;;
10910;SDS011;5508;49.150;11.030;2023-05-18T12:08:48;10.73;;;2.77;;
10910;SDS011;5508;49.150;11.030;2023-05-18T12:11:51;6.67;;;2.27;;
10910;SDS011;5508;49.150;11.030;2023-05-18T12:14:58;6.80;;;3.00;;
10910;SDS011;5508;49.150;11.030;2023-05-18T12:18:10;5.50;;;2.67;;
10910;SDS011;5508;49.150;11.030;2023-05-18T12:21:11;5.50;;;2.80;;
10910;SDS011;5508;49.150;11.030;2023-05-18T12:24:11;6.37;;;2.77;;
10910;SDS011;5508;49.150;11.030;2023-05-18T12:27:12;7.33;;;2.67;;
10910;SDS011;5508;49.150;11.030;2023-05-18T12:33:21;6.53;;;2.50;;
10910;SDS011;5508;49.150;11.030;2023-05-18T12:36:21;4.73;;;2.30;;
10910;SDS011;5508;49.150;11.030;2023-05-18T12:39:23;4.83;;;2.17;;
10910;SDS011;5508;49.150;11.030;2023-05-18T12:42:24;6.27;;;2.67;;
10910;SDS011;5508;49.150;11.030;2023-05-18T12:45:25;7.03;;;2.80;;
10910;SDS011;5508;49.150;11.030;2023-05-18T12:48:37;8.70;;;2.80;;
10910;SDS011;5508;49.150;11.030;2023-05-18T12:51:46;6.70;;;2.60;;
10910;SDS011;5508;49.150;11.030;2023-05-18T12:54:56;6.17;;;2.37;;
10910;SDS011;5508;49.150;11.030;2023-05-18T13:01:10;6.10;;;2.73;;
10910;SDS011;5508;49.150;11.030;2023-05-18T13:04:11;10.67;;;3.30;;
10910;SDS011;5508;49.150;11.030;2023-05-18T13:07:12;6.10;;;2.60;;
10910;SDS011;5508;49.150;11.030;2023-05-18T13:10:15;6.80;;;2.60;;
10910;SDS011;5508;49.150;11.030;2023-05-18T13:13:17;5.20;;;2.40;;
10910;SDS011;5508;49.150;11.030;2023-05-18T13:16:17;6.97;;;2.20;;
10910;SDS011;5508;49.150;11.030;2023-05-18T13:19:18;9.93;;;2.80;;
10910;SDS011;5508;49.150;11.030;2023-05-18T13:22:18;7.43;;;3.00;;
10910;SDS011;5508;49.150;11.030;2023-05-18T13:25:20;6.40;;;2.70;;
10910;SDS011;5508;49.150;11.030;2023-05-18T13:28:20;8.80;;;2.40;;
10910;SDS011;5508;49.150;11.030;2023-05-18T13:31:21;6.60;;;2.67;;
10910;SDS011;5508;49.150;11.030;2023-05-18T13:34:22;5.43;;;2.63;;
10910;SDS011;5508;49.150;11.030;2023-05-18T13:37:23;5.00;;;2.60;;
10910;SDS011;5508;49.150;11.030;2023-05-18T13:40:24;5.57;;;2.50;;
10910;SDS011;5508;49.150;11.030;2023-05-18T13:43:24;4.43;;;2.43;;
10910;SDS011;5508;49.150;11.030;2023-05-18T13:46:25;5.17;;;2.63;;
10910;SDS011;5508;49.150;11.030;2023-05-18T13:49:26;7.13;;;3.07;;
10910;SDS011;5508;49.150;11.030;2023-05-18T13:52:26;4.67;;;2.50;;
10910;SDS011;5508;49.150;11.030;2023-05-18T13:55:27;6.97;;;2.93;;
10910;SDS011;5508;49.150;11.030;2023-05-18T13:58:27;7.40;;;2.60;;
10910;SDS011;5508;49.150;11.030;2023-05-18T14:01:28;8.13;;;2.50;;
10910;SDS011;5508;49.150;11.030;2023-05-18T14:04:31;6.03;;;2.60;;
10910;SDS011;5508;49.150;11.030;2023-05-18T14:07:32;5.50;;;2.27;;
10910;SDS011;5508;49.150;11.030;2023-05-18T14:10:32;9.07;;;2.63;;
10910;SDS011;5508;49.150;11.030;2023-05-18T14:13:33;7.10;;;2.73;;
10910;SDS011;5508;49.150;11.030;2023-05-18T14:16:33;5.40;;;1.87;;
10910;SDS011;5508;49.150;11.030;2023-05-18T14:19:35;7.97;;;2.40;;
10910;SDS011;5508;49.150;11.030;2023-05-18T14:22:36;5.57;;;1.97;;
10910;SDS011;5508;49.150;11.030;2023-05-18T14:25:36;8.63;;;2.97;;
10910;SDS011;5508;49.150;11.030;2023-05-18T14:28:37;8.87;;;3.13;;
10910;SDS011;5508;49.150;11.030;2023-05-18T14:31:37;5.87;;;2.60;;
10910;SDS011;5508;49.150;11.030;2023-05-18T14:34:38;6.27;;;2.33;;
10910;SDS011;5508;49.150;11.030;2023-05-18T14:37:39;6.77;;;2.60;;
10910;SDS011;5508;49.150;11.030;2023-05-18T14:40:39;8.23;;;2.70;;
10910;SDS011;5508;49.150;11.030;2023-05-18T14:43:40;9.13;;;2.30;;
10910;SDS011;5508;49.150;11.030;2023-05-18T14:46:41;6.13;;;2.37;;
10910;SDS011;5508;49.150;11.030;2023-05-18T14:49:42;5.17;;;2.13;;
10910;SDS011;5508;49.150;11.030;2023-05-18T14:52:42;10.03;;;3.00;;
10910;SDS011;5508;49.150;11.030;2023-05-18T14:55:43;9.23;;;3.83;;
10910;SDS011;5508;49.150;11.030;2023-05-18T14:58:44;6.07;;;2.63;;
10910;SDS011;5508;49.150;11.030;2023-05-18T15:01:44;7.30;;;2.73;;
10910;SDS011;5508;49.150;11.030;2023-05-18T15:04:45;5.63;;;2.30;;
10910;SDS011;5508;49.150;11.030;2023-05-18T15:07:45;6.67;;;2.23;;
10910;SDS011;5508;49.150;11.030;2023-05-18T15:10:46;5.43;;;2.27;;
10910;SDS011;5508;49.150;11.030;2023-05-18T15:13:48;5.23;;;2.50;;
10910;SDS011;5508;49.150;11.030;2023-05-18T15:16:49;3.87;;;2.00;;
10910;SDS011;5508;49.150;11.030;2023-05-18T15:19:50;5.43;;;2.57;;
10910;SDS011;5508;49.150;11.030;2023-05-18T15:22:50;9.00;;;3.10;;
10910;SDS011;5508;49.150;11.030;2023-05-18T15:25:51;9.60;;;5.57;;
10910;SDS011;5508;49.150;11.030;2023-05-18T15:28:52;8.50;;;5.23;;
10910;SDS011;5508;49.150;11.030;2023-05-18T15:31:53;5.30;;;2.20;;
10910;SDS011;5508;49.150;11.030;2023-05-18T15:34:54;5.30;;;2.73;;
10910;SDS011;5508;49.150;11.030;2023-05-18T15:37:55;5.17;;;2.40;;
10910;SDS011;5508;49.150;11.030;2023-05-18T15:40:55;9.60;;;2.93;;
10910;SDS011;5508;49.150;11.030;2023-05-18T15:43:56;5.07;;;2.70;;
10910;SDS011;5508;49.150;11.030;2023-05-18T15:46:56;8.10;;;2.40;;
10910;SDS011;5508;49.150;11.030;2023-05-18T15:49:57;6.23;;;2.50;;
10910;SDS011;5508;49.150;11.030;2023-05-18T15:53:00;6.07;;;2.50;;
10910;SDS011;5508;49.150;11.030;2023-05-18T15:56:01;6.77;;;2.70;;
10910;SDS011;5508;49.150;11.030;2023-05-18T15:59:01;6.40;;;2.30;;
10910;SDS011;5508;49.150;11.030;2023-05-18T16:02:02;6.93;;;2.40;;
10910;SDS011;5508;49.150;11.030;2023-05-18T16:05:02;5.67;;;2.50;;
10910;SDS011;5508;49.150;11.030;2023-05-18T16:08:03;6.20;;;2.17;;
10910;SDS011;5508;49.150;11.030;2023-05-18T16:11:04;5.13;;;2.43;;
10910;SDS011;5508;49.150;11.030;2023-05-18T16:14:06;5.00;;;2.27;;
10910;SDS011;5508;49.150;11.030;2023-05-18T16:17:06;6.13;;;2.63;;
10910;SDS011;5508;49.150;11.030;2023-05-18T16:20:07;6.00;;;2.20;;
10910;SDS011;5508;49.150;11.030;2023-05-18T16:23:08;6.17;;;3.27;;
10910;SDS011;5508;49.150;11.030;2023-05-18T16:26:09;8.30;;;3.83;;
10910;SDS011;5508;49.150;11.030;2023-05-18T16:29:10;8.17;;;3.80;;
10910;SDS011;5508;49.150;11.030;2023-05-18T16:32:10;4.93;;;2.60;;
10910;SDS011;5508;49.150;11.030;2023-05-18T16:35:11;6.93;;;2.77;;
10910;SDS011;5508;49.150;11.030;2023-05-18T16:38:11;7.20;;;3.17;;
10910;SDS011;5508;49.150;11.030;2023-05-18T16:41:12;6.43;;;2.70;;
10910;SDS011;5508;49.150;11.030;2023-05-18T16:44:15;6.70;;;2.70;;
10910;SDS011;5508;49.150;11.030;2023-05-18T16:47:15;7.83;;;2.40;;
10910;SDS011;5508;49.150;11.030;2023-05-18T16:50:16;9.63;;;3.23;;
10910;SDS011;5508;49.150;11.030;2023-05-18T16:53:17;5.03;;;2.00;;
10910;SDS011;5508;49.150;11.030;2023-05-18T16:56:17;6.27;;;2.60;;
10910;SDS011;5508;49.150;11.030;2023-05-18T16:59:21;6.30;;;2.83;;
10910;SDS011;5508;49.150;11.030;2023-05-18T17:02:21;8.87;;;2.30;;
10910;SDS011;5508;49.150;11.030;2023-05-18T17:05:23;5.67;;;2.20;;
10910;SDS011;5508;49.150;11.030;2023-05-18T17:08:23;8.93;;;2.87;;
10910;SDS011;5508;49.150;11.030;2023-05-18T17:11:24;4.43;;;2.47;;
10910;SDS011;5508;49.150;11.030;2023-05-18T17:14:26;6.17;;;2.27;;
10910;SDS011;5508;49.150;11.030;2023-05-18T17:17:27;7.90;;;2.33;;
10910;SDS011;5508;49.150;11.030;2023-05-18T17:20:27;10.83;;;3.50;;
10910;SDS011;5508;49.150;11.030;2023-05-18T17:23:28;4.37;;;1.83;;
10910;SDS011;5508;49.150;11.030;2023-05-18T17:26:29;4.53;;;2.90;;
10910;SDS011;5508;49.150;11.030;2023-05-18T17:29:31;5.83;;;2.67;;
10910;SDS011;5508;49.150;11.030;2023-05-18T17:32:32;4.20;;;2.30;;
10910;SDS011;5508;49.150;11.030;2023-05-18T17:35:33;9.27;;;2.37;;
10910;SDS011;5508;49.150;11.030;2023-05-18T17:38:33;5.57;;;2.30;;
10910;SDS011;5508;49.150;11.030;2023-05-18T17:41:34;8.23;;;2.57;;
10910;SDS011;5508;49.150;11.030;2023-05-18T17:44:35;4.50;;;2.23;;
10910;SDS011;5508;49.150;11.030;2023-05-18T17:47:35;5.77;;;2.60;;
10910;SDS011;5508;49.150;11.030;2023-05-18T17:50:37;8.03;;;4.47;;
10910;SDS011;5508;49.150;11.030;2023-05-18T17:53:38;6.93;;;3.30;;
10910;SDS011;5508;49.150;11.030;2023-05-18T17:56:41;9.83;;;6.30;;
10910;SDS011;5508;49.150;11.030;2023-05-18T17:59:42;7.63;;;3.63;;
10910;SDS011;5508;49.150;11.030;2023-05-18T18:02:42;6.10;;;3.00;;
10910;SDS011;5508;49.150;11.030;2023-05-18T18:05:43;5.80;;;2.83;;
10910;SDS011;5508;49.150;11.030;2023-05-18T18:08:43;6.83;;;3.53;;
10910;SDS011;5508;49.150;11.030;2023-05-18T18:11:44;6.37;;;3.13;;
10910;SDS011;5508;49.150;11.030;2023-05-18T18:14:44;12.90;;;3.07;;
10910;SDS011;5508;49.150;11.030;2023-05-18T18:17:45;5.17;;;2.93;;
10910;SDS011;5508;49.150;11.030;2023-05-18T18:20:46;7.50;;;2.90;;
10910;SDS011;5508;49.150;11.030;2023-05-18T18:23:46;6.90;;;4.00;;